Goslar, Germany

07:09 PM CEST am 27. Juni 2017 (GMT +0200)
Dörpkestieg | | Change Station

Höhe 941 ft 51.90 °N, 10.44 °E | Updated 5 minutes ago

Wolkig
Wolkig
70.0 °F
gefühlte 70.0 °F
N
0.6
Wind Wechselnd Wind aus Süd-Südwest
Gusts 3.7 mph

Heute
Max. -- | schwach -- °F
--% Regenrisiko
Gestern
Max. -- | schwach -- °F
Precip. -- inch
Druck 29.77 inch
Sichtweite -9999.0 Meilen
Wolken
Taupunkt 59 °F
Feuchtigkeit 68%
Regen 0.00 inch
Schneehöhe Nicht verfügbar..
5:00 AM 9:41 PM
Erstes Viertel, 18% visible
METAR EDVE 271650Z 11008KT CAVOK 21/14 Q1008
Druck 29.77 inch
Sichtweite -9999.0 Meilen
Wolken
Taupunkt 59 °F
Feuchtigkeit 68%
Regen 0.00 inch
Schneehöhe Nicht verfügbar..
5:00 AM 9:41 PM
Erstes Viertel, 18% visible
METAR EDVE 271650Z 11008KT CAVOK 21/14 Q1008

Get Severe Weather Alerts

Thanks for signing up!

Be on the lookout for a verification email in your inbox.

You'll start receiving the daily forecast at 6 AM.

×

10-Day Weather Forecast

×

Almanac

Astronomie

Jun. 27, 2017 Aufgang Untergang
Genaue Zeit
Bürgerliche Dämmerung
Nautische Dämmerung
Astronomische Dämmerung
Mond
Länge des sichtbaren Lichts
Tageslänge
Tomorrow will be .
, % of the Moon is Illuminated

Heutige Rekorde

Country Highs Country Lows

Community

WunderPhotos

Category 6

Welcome to Category 6. This is the collective home for Weather Underground's featured writeups by Dr. Jeff Masters (right), Bob Henson (left), Chris Burt, and other regular contributors.

Nearby

Luftqualität

  Luftqualität LQ Index Schadstoff
Not available.

Schneehöhe

Station Depth Höhe

Erdbebenaktivität

Stadt Distance Mag. Time & Date
Minimum magnitude displayed is 2.5.

küstennahe Wassertemperaturen

Ort Temperatur

Stations

Wetterstationen in der Umgebung

Stationsstandort Temp. Windchill Taupunkt Feuchtigkeit Wind Precip. Höhe Aktualisiert Art